Time;durP1;ratioP1;P1;durP2;ratioP2;P2;SDS_P1;SDS_P2;PMS_P1;PMS_P2;Temp;Humidity;BMP_temperature;BMP_pressure;BME280_temperature;BME280_humidity;BME280_pressure;Samples;Min_cycle;Max_cycle;Signal;HPM_P1;HPM_P2
2022/12/25 00:01:11;;;;;;;4.00;3.63;;;;;;;;;;5026822;28;20049;-89
2022/12/25 00:03:38;;;;;;;1.45;1.42;;;;;;;;;;5033411;28;20045;-89
2022/12/25 00:06:05;;;;;;;4.45;4.10;;;;;;;;;;5033777;28;20041;-90
2022/12/25 00:08:31;;;;;;;3.40;3.03;;;;;;;;;;5033594;28;20111;-90
2022/12/25 00:10:59;;;;;;;3.95;3.65;;;;;;;;;;5033450;28;20124;-90
2022/12/25 00:13:25;;;;;;;3.42;3.13;;;;;;;;;;5033503;28;20446;-90
2022/12/25 00:15:53;;;;;;;5.13;3.88;;;;;;;;;;5033312;28;20483;-89
2022/12/25 00:18:20;;;;;;;4.07;3.72;;;;;;;;;;5033060;28;20095;-89
2022/12/25 00:20:55;;;;;;;5.95;3.97;;;;;;;;;;5037293;28;20483;-90
2022/12/25 00:23:22;;;;;;;8.45;7.72;;;;;;;;;;5033358;28;20053;-90
2022/12/25 00:25:48;;;;;;;2.63;2.50;;;;;;;;;;5032914;28;20046;-89
2022/12/25 00:28:14;;;;;;;5.75;5.25;;;;;;;;;;5033385;28;20103;-89
2022/12/25 00:30:41;;;;;;;5.50;2.90;;;;;;;;;;5032940;28;20112;-89
2022/12/25 00:33:09;;;;;;;2.67;2.53;;;;;;;;;;5033224;28;20095;-89
2022/12/25 00:35:35;;;;;;;5.40;4.72;;;;;;;;;;5032552;28;20045;-89
2022/12/25 00:38:02;;;;;;;4.15;3.88;;;;;;;;;;5034752;28;20056;-89
2022/12/25 00:40:28;;;;;;;5.43;5.03;;;;;;;;;;5032984;28;20049;-89
2022/12/25 00:42:55;;;;;;;5.00;4.07;;;;;;;;;;5032786;28;20053;-89
2022/12/25 00:45:21;;;;;;;3.40;3.22;;;;;;;;;;5032608;28;20564;-89
2022/12/25 00:47:48;;;;;;;2.08;1.98;;;;;;;;;;5032839;28;20107;-88
2022/12/25 00:50:16;;;;;;;3.85;2.70;;;;;;;;;;5032718;28;20099;-89
2022/12/25 00:52:43;;;;;;;4.05;3.85;;;;;;;;;;5031073;28;20142;-89
2022/12/25 00:55:10;;;;;;;2.28;2.17;;;;;;;;;;5013106;28;20119;-89
2022/12/25 00:57:36;;;;;;;1.63;1.60;;;;;;;;;;5012831;28;20053;-89
2022/12/25 01:00:03;;;;;;;6.30;5.80;;;;;;;;;;5012992;28;20458;-88
2022/12/25 01:02:29;;;;;;;2.13;2.03;;;;;;;;;;5012813;28;20104;-89
2022/12/25 01:04:56;;;;;;;1.67;1.58;;;;;;;;;;5012784;28;20046;-88
2022/12/25 01:07:25;;;;;;;2.65;2.13;;;;;;;;;;5012716;28;20049;-88
2022/12/25 01:12:36;;;;;;;1.77;1.67;;;;;;;;;;5052615;28;20124;-88
2022/12/25 01:15:03;;;;;;;2.28;2.17;;;;;;;;;;5052045;28;20498;-88
2022/12/25 01:17:29;;;;;;;2.28;2.17;;;;;;;;;;5052117;28;20049;-88
2022/12/25 01:19:56;;;;;;;1.42;1.33;;;;;;;;;;5052006;28;20099;-89
2022/12/25 01:22:22;;;;;;;1.67;1.58;;;;;;;;;;5052506;28;20049;-89
2022/12/25 01:24:50;;;;;;;2.13;2.03;;;;;;;;;;5051924;28;20045;-88
2022/12/25 01:27:17;;;;;;;3.55;3.35;;;;;;;;;;5039450;28;20072;-88
2022/12/25 01:29:43;;;;;;;2.95;2.75;;;;;;;;;;5052385;28;20053;-88
2022/12/25 01:32:10;;;;;;;4.05;3.85;;;;;;;;;;5052413;28;20053;-88
2022/12/25 01:34:36;;;;;;;1.98;1.20;;;;;;;;;;5051962;28;20049;-88
2022/12/25 01:37:03;;;;;;;4.88;4.57;;;;;;;;;;5052071;28;20103;-88
2022/12/25 01:39:29;;;;;;;4.35;3.65;;;;;;;;;;5051826;28;20387;-89
2022/12/25 01:41:57;;;;;;;3.08;2.83;;;;;;;;;;5052105;28;20053;-89
2022/12/25 01:44:42;;;;;;;2.00;1.90;;;;;;;;;;5046874;28;20045;-89
2022/12/25 01:47:09;;;;;;;2.88;2.67;;;;;;;;;;5014051;28;20108;-88
2022/12/25 01:49:37;;;;;;;2.42;2.33;;;;;;;;;;5015921;28;20458;-88
2022/12/25 01:52:06;;;;;;;1.95;1.83;;;;;;;;;;5029121;28;20050;-88
2022/12/25 01:54:34;;;;;;;3.20;2.70;;;;;;;;;;5035857;28;20140;-88
2022/12/25 01:57:04;;;;;;;2.58;2.28;;;;;;;;;;5035925;28;20041;-88
2022/12/25 01:59:30;;;;;;;1.35;1.25;;;;;;;;;;5035748;28;20045;-88
2022/12/25 02:01:57;;;;;;;0.95;0.95;;;;;;;;;;5037040;28;20049;-88
2022/12/25 02:04:37;;;;;;;2.17;2.08;;;;;;;;;;5038677;28;20049;-88
2022/12/25 02:07:04;;;;;;;1.92;1.40;;;;;;;;;;5035401;28;20392;-88
2022/12/25 02:09:31;;;;;;;1.75;1.67;;;;;;;;;;5035675;28;20453;-88
2022/12/25 02:11:58;;;;;;;1.85;1.75;;;;;;;;;;5035629;28;20050;-88
2022/12/25 02:14:27;;;;;;;2.50;2.30;;;;;;;;;;5035589;28;20045;-89
2022/12/25 02:16:56;;;;;;;3.03;2.80;;;;;;;;;;5035222;28;20545;-89
2022/12/25 02:19:31;;;;;;;1.73;1.63;;;;;;;;;;5035552;28;20049;-88
2022/12/25 02:22:04;;;;;;;0.75;0.75;;;;;;;;;;5035338;28;20049;-88
2022/12/25 02:24:39;;;;;;;0.80;0.80;;;;;;;;;;5035335;28;20072;-88
2022/12/25 02:27:08;;;;;;;1.45;1.40;;;;;;;;;;5035045;28;20050;-88
2022/12/25 02:29:41;;;;;;;2.15;1.77;;;;;;;;;;5035402;28;20119;-88
2022/12/25 02:32:09;;;;;;;2.58;2.47;;;;;;;;;;5035255;28;20052;-88
2022/12/25 02:34:38;;;;;;;1.77;1.67;;;;;;;;;;5035307;28;20107;-88
2022/12/25 02:37:06;;;;;;;12.13;2.47;;;;;;;;;;5038993;28;20379;-88
2022/12/25 03:06:41;;;;;;;2.78;2.58;;;;;;;;;;5029827;28;20057;-88
2022/12/25 03:07:22;;;;;;;2.80;1.98;;;;;;;;;;4954401;29;20067;-89
2022/12/25 03:12:38;;;;;;;4.07;3.88;;;;;;;;;;4954160;29;20170;-88
2022/12/25 03:17:50;;;;;;;3.38;1.67;;;;;;;;;;4954013;29;20062;-88
2022/12/25 03:28:30;;;;;;;2.00;1.90;;;;;;;;;;4958325;28;20090;-89
2022/12/25 03:31:12;;;;;;;2.35;2.15;;;;;;;;;;4953804;28;20043;-89
2022/12/25 03:36:54;;;;;;;2.47;2.35;;;;;;;;;;4953973;29;20139;-89
2022/12/25 04:37:14;;;;;;;2.72;2.58;;;;;;;;;;4949957;28;20057;-89
2022/12/25 04:39:41;;;;;;;1.63;1.55;;;;;;;;;;4971954;28;20055;-89
2022/12/25 04:42:07;;;;;;;0.90;0.90;;;;;;;;;;4972095;28;20089;-89
2022/12/25 04:44:35;;;;;;;2.20;2.05;;;;;;;;;;4971613;28;20622;-89
2022/12/25 04:47:02;;;;;;;1.38;1.38;;;;;;;;;;4952863;29;20047;-88
2022/12/25 04:49:28;;;;;;;2.28;2.17;;;;;;;;;;4952444;29;20533;-89
2022/12/25 04:51:55;;;;;;;1.88;1.70;;;;;;;;;;4952468;29;20055;-88
2022/12/25 04:54:21;;;;;;;2.58;2.40;;;;;;;;;;4955849;28;20575;-88
2022/12/25 04:56:48;;;;;;;1.67;1.58;;;;;;;;;;4957389;28;20043;-88
2022/12/25 04:59:14;;;;;;;1.77;1.67;;;;;;;;;;4993205;28;20046;-88
2022/12/25 05:01:42;;;;;;;1.77;1.75;;;;;;;;;;4993167;28;20093;-88
2022/12/25 05:04:08;;;;;;;0.55;0.55;;;;;;;;;;4993164;28;20104;-88
2022/12/25 05:06:35;;;;;;;0.65;0.65;;;;;;;;;;4992842;28;20448;-89
2022/12/25 05:09:01;;;;;;;0.65;0.65;;;;;;;;;;4993505;28;20101;-89
2022/12/25 05:11:28;;;;;;;2.55;2.35;;;;;;;;;;5016619;28;20556;-89
2022/12/25 05:13:54;;;;;;;2.33;2.17;;;;;;;;;;5032655;28;20046;-88
2022/12/25 05:16:21;;;;;;;2.70;2.50;;;;;;;;;;5032650;28;20045;-89
2022/12/25 05:18:49;;;;;;;1.70;1.60;;;;;;;;;;5032530;28;20461;-89
2022/12/25 05:21:16;;;;;;;2.22;2.13;;;;;;;;;;5034689;28;20081;-88
2022/12/25 05:23:47;;;;;;;4.13;2.47;;;;;;;;;;5036539;28;20049;-88
2022/12/25 05:26:14;;;;;;;2.20;2.10;;;;;;;;;;5036217;28;20057;-89
2022/12/25 05:28:41;;;;;;;2.33;2.22;;;;;;;;;;5029777;28;20325;-90
2022/12/25 05:31:07;;;;;;;2.00;1.85;;;;;;;;;;4997243;28;20062;-89
2022/12/25 05:33:34;;;;;;;3.28;3.08;;;;;;;;;;4996914;28;20623;-89
2022/12/25 05:36:03;;;;;;;2.42;2.30;;;;;;;;;;4996854;28;20046;-89
2022/12/25 05:38:30;;;;;;;3.30;3.10;;;;;;;;;;5009696;28;20054;-90
2022/12/25 05:40:56;;;;;;;1.13;1.13;;;;;;;;;;5016772;28;20470;-90
2022/12/25 05:43:23;;;;;;;1.33;1.33;;;;;;;;;;5016479;28;20054;-89
2022/12/25 05:45:50;;;;;;;1.48;1.42;;;;;;;;;;5016163;28;20583;-89
2022/12/25 05:48:16;;;;;;;1.92;1.33;;;;;;;;;;5031341;28;20107;-89
2022/12/25 05:50:43;;;;;;;1.98;1.88;;;;;;;;;;5036121;28;20053;-88
2022/12/25 05:53:12;;;;;;;1.45;1.15;;;;;;;;;;5036264;28;20054;-89
2022/12/25 05:55:42;;;;;;;0.93;0.80;;;;;;;;;;5036092;28;20107;-89
2022/12/25 05:58:09;;;;;;;1.17;1.17;;;;;;;;;;5035755;28;20466;-88
2022/12/25 06:00:36;;;;;;;2.47;1.77;;;;;;;;;;5035761;28;20053;-89
2022/12/25 06:03:02;;;;;;;2.03;1.92;;;;;;;;;;5035854;28;20495;-89
2022/12/25 06:05:29;;;;;;;2.80;2.70;;;;;;;;;;5034806;28;20049;-89
2022/12/25 06:07:55;;;;;;;1.35;1.25;;;;;;;;;;5055807;28;20049;-89
2022/12/25 06:10:23;;;;;;;1.05;1.02;;;;;;;;;;5055447;28;20048;-89
2022/12/25 06:12:50;;;;;;;1.35;1.30;;;;;;;;;;5055746;28;20045;-88
2022/12/25 06:15:16;;;;;;;2.70;2.35;;;;;;;;;;5055484;28;20102;-88
2022/12/25 06:17:43;;;;;;;2.13;2.03;;;;;;;;;;5055364;28;20057;-88
2022/12/25 06:20:09;;;;;;;3.03;2.83;;;;;;;;;;5054930;28;20513;-88
2022/12/25 06:22:36;;;;;;;4.65;4.45;;;;;;;;;;5037969;28;20049;-88
2022/12/25 06:25:02;;;;;;;2.13;2.03;;;;;;;;;;5035345;28;20123;-88
2022/12/25 06:27:30;;;;;;;1.58;1.50;;;;;;;;;;5034854;28;20095;-88
2022/12/25 06:29:57;;;;;;;2.75;1.98;;;;;;;;;;5035196;28;20096;-88
2022/12/25 06:32:23;;;;;;;2.97;2.78;;;;;;;;;;5034596;28;20049;-89
2022/12/25 06:34:50;;;;;;;2.22;2.13;;;;;;;;;;5033474;28;20041;-89
2022/12/25 06:37:17;;;;;;;1.90;1.80;;;;;;;;;;5015023;28;20069;-89
2022/12/25 06:39:43;;;;;;;0.75;0.75;;;;;;;;;;5030010;28;20053;-89
2022/12/25 06:42:09;;;;;;;0.85;0.85;;;;;;;;;;5034846;28;20049;-89
2022/12/25 06:44:37;;;;;;;1.92;1.83;;;;;;;;;;5034436;28;20103;-90
2022/12/25 06:47:04;;;;;;;3.72;3.50;;;;;;;;;;5036957;28;20050;-88
2022/12/25 06:49:30;;;;;;;3.13;3.00;;;;;;;;;;5054111;28;20095;-89
2022/12/25 06:51:57;;;;;;;2.70;2.50;;;;;;;;;;5054245;28;20045;-87
2022/12/25 06:54:23;;;;;;;1.60;1.58;;;;;;;;;;5054321;28;20111;-87
2022/12/25 06:56:50;;;;;;;2.13;2.03;;;;;;;;;;5054442;28;20098;-87
2022/12/25 06:59:16;;;;;;;3.25;3.05;;;;;;;;;;5052633;28;20091;-87
2022/12/25 07:01:45;;;;;;;2.42;2.28;;;;;;;;;;5038176;28;20050;-86
2022/12/25 07:04:14;;;;;;;4.22;1.90;;;;;;;;;;5014132;28;20038;-86
2022/12/25 07:06:40;;;;;;;4.22;3.60;;;;;;;;;;5022204;28;20491;-88
2022/12/25 07:09:06;;;;;;;2.67;2.58;;;;;;;;;;5014566;28;20050;-87
2022/12/25 07:11:33;;;;;;;5.28;4.78;;;;;;;;;;5022570;28;20061;-88
2022/12/25 07:13:59;;;;;;;2.13;2.00;;;;;;;;;;5033927;28;20384;-88
2022/12/25 07:16:26;;;;;;;5.25;4.85;;;;;;;;;;5034432;28;20119;-88
2022/12/25 07:18:54;;;;;;;4.45;2.63;;;;;;;;;;5030511;28;20045;-88
2022/12/25 07:21:21;;;;;;;5.35;4.93;;;;;;;;;;5047809;28;20049;-88
2022/12/25 07:23:49;;;;;;;6.90;3.75;;;;;;;;;;5034052;28;20079;-88
2022/12/25 07:26:16;;;;;;;4.63;3.38;;;;;;;;;;5033842;28;20054;-88
2022/12/25 07:28:42;;;;;;;4.20;3.90;;;;;;;;;;5034025;28;20054;-88
2022/12/25 07:31:10;;;;;;;4.05;2.45;;;;;;;;;;5034113;28;20115;-88
2022/12/25 07:33:37;;;;;;;4.10;3.28;;;;;;;;;;5033778;28;20049;-88
2022/12/25 07:36:06;;;;;;;3.30;3.10;;;;;;;;;;5035968;28;20098;-88
2022/12/25 07:38:32;;;;;;;4.25;4.05;;;;;;;;;;5053245;28;20057;-88
2022/12/25 07:40:59;;;;;;;3.38;3.20;;;;;;;;;;5053385;28;20053;-88
2022/12/25 07:43:26;;;;;;;5.00;3.28;;;;;;;;;;5052824;28;20486;-87
2022/12/25 07:45:54;;;;;;;4.07;3.85;;;;;;;;;;5052623;28;20068;-87
2022/12/25 07:48:20;;;;;;;5.32;2.03;;;;;;;;;;5053194;28;20091;-88
2022/12/25 07:50:47;;;;;;;7.10;5.72;;;;;;;;;;5051923;28;20450;-88
2022/12/25 07:53:15;;;;;;;3.90;2.15;;;;;;;;;;5028749;28;20053;-87
2022/12/25 07:55:41;;;;;;;2.88;2.67;;;;;;;;;;5033268;28;20104;-88
2022/12/25 07:58:08;;;;;;;1.58;1.48;;;;;;;;;;5033394;28;20045;-87
2022/12/25 08:00:34;;;;;;;5.22;4.90;;;;;;;;;;5033284;28;20092;-87
2022/12/25 08:03:01;;;;;;;5.60;3.92;;;;;;;;;;5033234;28;20395;-87
2022/12/25 08:05:27;;;;;;;4.53;4.18;;;;;;;;;;5032997;28;20053;-87
2022/12/25 08:07:54;;;;;;;5.53;3.45;;;;;;;;;;5037350;28;20041;-88
2022/12/25 08:10:22;;;;;;;2.15;2.05;;;;;;;;;;5052484;28;20075;-88
2022/12/25 08:12:48;;;;;;;7.13;6.72;;;;;;;;;;5052513;28;20052;-88
2022/12/25 08:15:14;;;;;;;4.00;3.05;;;;;;;;;;5053094;28;20406;-88
2022/12/25 08:17:41;;;;;;;4.63;4.28;;;;;;;;;;5052965;28;20048;-88
2022/12/25 08:20:08;;;;;;;5.15;4.85;;;;;;;;;;5052533;28;20049;-88
2022/12/25 08:22:35;;;;;;;8.63;7.93;;;;;;;;;;5052703;28;20103;-89
2022/12/25 08:25:02;;;;;;;8.52;7.80;;;;;;;;;;5040310;28;20064;-89
2022/12/25 08:27:29;;;;;;;9.88;8.90;;;;;;;;;;5032342;28;20553;-86
2022/12/25 08:29:56;;;;;;;9.85;9.02;;;;;;;;;;5032327;28;20049;-87
2022/12/25 08:32:22;;;;;;;4.50;4.20;;;;;;;;;;5032717;28;20557;-87
2022/12/25 08:34:49;;;;;;;5.38;4.88;;;;;;;;;;5032794;28;20053;-86
2022/12/25 08:37:15;;;;;;;3.50;3.17;;;;;;;;;;5032602;28;20074;-86
2022/12/25 08:39:42;;;;;;;6.85;5.80;;;;;;;;;;5032238;28;20049;-87
2022/12/25 08:42:08;;;;;;;7.03;6.13;;;;;;;;;;5034886;28;20091;-89
2022/12/25 08:44:36;;;;;;;7.72;6.95;;;;;;;;;;5031944;28;20473;-89
2022/12/25 08:47:03;;;;;;;7.10;6.40;;;;;;;;;;5032310;28;20045;-89
2022/12/25 08:49:29;;;;;;;6.97;5.63;;;;;;;;;;5032730;28;20050;-88
2022/12/25 08:51:56;;;;;;;5.00;4.50;;;;;;;;;;5032618;28;20095;-89
2022/12/25 08:54:23;;;;;;;4.65;4.25;;;;;;;;;;5032113;28;20080;-89
2022/12/25 08:56:50;;;;;;;3.85;3.55;;;;;;;;;;5032353;28;20054;-88
2022/12/25 08:59:16;;;;;;;3.15;2.83;;;;;;;;;;5045606;28;20083;-87
2022/12/25 09:01:44;;;;;;;6.07;5.68;;;;;;;;;;5052349;28;20075;-88
2022/12/25 09:04:10;;;;;;;4.22;3.55;;;;;;;;;;5052470;28;20057;-87
2022/12/25 09:06:37;;;;;;;4.43;4.10;;;;;;;;;;5051633;28;20045;-87
2022/12/25 09:09:03;;;;;;;4.20;3.75;;;;;;;;;;5051593;28;20492;-87
2022/12/25 09:11:30;;;;;;;5.35;4.43;;;;;;;;;;5051541;28;20045;-86
2022/12/25 09:13:56;;;;;;;6.15;5.63;;;;;;;;;;5051426;28;20607;-86
2022/12/25 09:16:23;;;;;;;5.13;4.68;;;;;;;;;;5043346;28;20056;-86
2022/12/25 09:18:51;;;;;;;4.05;3.35;;;;;;;;;;5011939;28;20054;-86
2022/12/25 09:21:18;;;;;;;2.78;2.65;;;;;;;;;;5012006;28;20104;-86
2022/12/25 09:23:45;;;;;;;2.53;2.30;;;;;;;;;;5012133;28;20054;-86
2022/12/25 09:26:12;;;;;;;2.60;2.40;;;;;;;;;;5012405;28;20058;-86
2022/12/25 09:28:39;;;;;;;3.40;3.10;;;;;;;;;;5011797;28;20480;-85
2022/12/25 09:31:06;;;;;;;3.33;3.05;;;;;;;;;;5012157;28;20104;-86
2022/12/25 09:33:32;;;;;;;10.18;2.55;;;;;;;;;;5011684;28;20054;-85
2022/12/25 09:36:02;;;;;;;4.72;4.32;;;;;;;;;;5045382;28;20079;-88
2022/12/25 09:38:29;;;;;;;3.45;3.25;;;;;;;;;;5050952;28;20118;-86
2022/12/25 09:40:59;;;;;;;4.95;3.75;;;;;;;;;;5051381;28;20048;-85
2022/12/25 09:43:27;;;;;;;3.28;2.90;;;;;;;;;;5051291;28;20045;-85
2022/12/25 09:45:53;;;;;;;2.47;2.35;;;;;;;;;;5051616;28;20156;-86
2022/12/25 09:48:20;;;;;;;3.17;2.90;;;;;;;;;;5051117;28;20045;-86
2022/12/25 09:50:48;;;;;;;4.60;4.30;;;;;;;;;;5038803;28;20049;-86
2022/12/25 09:53:18;;;;;;;3.70;3.13;;;;;;;;;;5031377;28;20107;-87
2022/12/25 09:55:48;;;;;;;2.22;2.08;;;;;;;;;;5032210;28;20103;-86
2022/12/25 09:58:14;;;;;;;11.75;2.72;;;;;;;;;;5032190;28;20119;-87
2022/12/25 10:00:43;;;;;;;2.58;2.45;;;;;;;;;;5031597;28;20495;-86
2022/12/25 10:03:13;;;;;;;2.95;2.47;;;;;;;;;;5031684;28;20084;-86
2022/12/25 10:05:46;;;;;;;3.58;3.28;;;;;;;;;;5031522;28;20107;-87
2022/12/25 10:08:16;;;;;;;3.35;3.15;;;;;;;;;;5038064;28;20442;-87
2022/12/25 10:10:48;;;;;;;2.10;2.00;;;;;;;;;;5055224;28;20053;-87
2022/12/25 10:13:20;;;;;;;2.25;2.15;;;;;;;;;;5054511;28;20059;-87
2022/12/25 10:15:51;;;;;;;1.73;1.63;;;;;;;;;;5054824;28;20099;-87
2022/12/25 10:18:32;;;;;;;4.40;4.03;;;;;;;;;;5055143;28;20091;-87
2022/12/25 10:21:00;;;;;;;2.13;2.03;;;;;;;;;;5021791;28;20115;-87
2022/12/25 10:23:29;;;;;;;1.45;1.23;;;;;;;;;;5050974;28;20486;-87
2022/12/25 10:25:57;;;;;;;3.08;2.70;;;;;;;;;;5055150;28;20057;-87
2022/12/25 10:28:26;;;;;;;5.03;4.82;;;;;;;;;;5054828;28;20102;-87
2022/12/25 10:30:53;;;;;;;2.10;2.00;;;;;;;;;;5055176;28;20079;-87
2022/12/25 10:33:20;;;;;;;2.08;1.83;;;;;;;;;;5054749;28;20490;-86
2022/12/25 10:35:47;;;;;;;1.20;1.17;;;;;;;;;;5054798;28;20055;-86
2022/12/25 10:38:14;;;;;;;2.65;2.55;;;;;;;;;;5055126;28;20060;-86
2022/12/25 10:40:47;;;;;;;1.55;1.52;;;;;;;;;;5038393;28;20049;-86
2022/12/25 10:43:16;;;;;;;2.15;2.05;;;;;;;;;;5034528;28;20049;-86
2022/12/25 10:45:43;;;;;;;2.75;2.50;;;;;;;;;;5034969;28;20099;-88
2022/12/25 10:48:13;;;;;;;3.08;2.92;;;;;;;;;;5034557;28;20049;-87
2022/12/25 10:50:42;;;;;;;2.28;1.73;;;;;;;;;;5034089;28;20499;-87
2022/12/25 10:53:16;;;;;;;2.30;2.20;;;;;;;;;;5034267;28;20045;-88
2022/12/25 10:55:43;;;;;;;3.00;2.90;;;;;;;;;;5034335;28;20054;-88
2022/12/25 10:58:19;;;;;;;3.10;3.00;;;;;;;;;;5037806;28;20095;-87
2022/12/25 11:00:51;;;;;;;3.15;3.03;;;;;;;;;;5034025;28;20053;-87
2022/12/25 11:03:21;;;;;;;1.70;1.60;;;;;;;;;;5034251;28;20053;-87
2022/12/25 11:05:49;;;;;;;3.70;3.50;;;;;;;;;;5034384;28;20056;-88
2022/12/25 11:08:18;;;;;;;2.17;2.08;;;;;;;;;;5033749;28;20053;-88
2022/12/25 11:10:51;;;;;;;1.90;1.80;;;;;;;;;;5034108;28;20057;-87
2022/12/25 11:13:20;;;;;;;4.05;3.85;;;;;;;;;;5034670;28;20119;-87
2022/12/25 11:15:48;;;;;;;2.67;2.58;;;;;;;;;;5033564;28;20057;-87
2022/12/25 11:18:18;;;;;;;3.42;3.30;;;;;;;;;;5034125;28;20097;-88
2022/12/25 11:20:48;;;;;;;2.13;2.03;;;;;;;;;;5034428;28;20081;-86
2022/12/25 11:23:16;;;;;;;1.98;1.85;;;;;;;;;;5034253;28;20049;-87
2022/12/25 11:25:43;;;;;;;1.73;1.63;;;;;;;;;;5034350;28;20053;-88
2022/12/25 11:28:10;;;;;;;3.70;3.58;;;;;;;;;;5034182;28;20046;-87
2022/12/25 11:30:40;;;;;;;2.10;2.00;;;;;;;;;;5038389;28;20049;-87
2022/12/25 11:33:10;;;;;;;2.25;1.80;;;;;;;;;;5053524;28;20048;-87
2022/12/25 11:35:44;;;;;;;4.80;4.60;;;;;;;;;;5053781;28;20490;-88
2022/12/25 11:38:11;;;;;;;3.40;3.30;;;;;;;;;;5053814;28;20057;-87
2022/12/25 11:40:41;;;;;;;2.53;2.42;;;;;;;;;;5053642;28;20053;-87
2022/12/25 11:43:10;;;;;;;4.18;3.95;;;;;;;;;;5052646;28;20049;-88
2022/12/25 11:45:39;;;;;;;3.67;3.55;;;;;;;;;;5034658;28;20057;-87
2022/12/25 11:48:07;;;;;;;1.33;1.30;;;;;;;;;;5033591;28;20045;-87
2022/12/25 11:50:35;;;;;;;1.63;1.58;;;;;;;;;;5033608;28;20045;-88
2022/12/25 11:53:03;;;;;;;3.95;3.63;;;;;;;;;;5033604;28;20549;-87
2022/12/25 11:55:33;;;;;;;1.63;1.52;;;;;;;;;;5033819;28;20092;-87
2022/12/25 11:58:02;;;;;;;1.73;1.65;;;;;;;;;;5033368;28;20548;-88
2022/12/25 12:00:30;;;;;;;2.50;2.40;;;;;;;;;;5033284;28;20462;-88
2022/12/25 12:03:01;;;;;;;2.53;2.40;;;;;;;;;;5033988;28;20049;-87
2022/12/25 12:05:30;;;;;;;2.50;2.40;;;;;;;;;;5033230;28;20127;-87
2022/12/25 12:07:58;;;;;;;3.47;3.17;;;;;;;;;;5034927;28;20079;-88
2022/12/25 12:10:32;;;;;;;2.33;2.22;;;;;;;;;;5033055;28;20049;-87
2022/12/25 12:13:04;;;;;;;2.58;2.47;;;;;;;;;;5032813;28;20053;-89
2022/12/25 12:15:35;;;;;;;1.83;1.77;;;;;;;;;;5033128;28;20053;-87
2022/12/25 12:18:10;;;;;;;2.72;2.63;;;;;;;;;;5033567;28;20045;-88
2022/12/25 12:20:36;;;;;;;2.65;2.55;;;;;;;;;;5033369;28;20495;-88
2022/12/25 12:23:04;;;;;;;2.78;2.58;;;;;;;;;;5033497;28;20099;-88
2022/12/25 12:25:31;;;;;;;3.58;3.47;;;;;;;;;;5048150;28;20055;-88
2022/12/25 12:27:58;;;;;;;2.50;2.40;;;;;;;;;;5052947;28;20465;-88
2022/12/25 12:30:27;;;;;;;2.50;2.40;;;;;;;;;;5052808;28;20049;-89
2022/12/25 12:32:54;;;;;;;3.30;3.20;;;;;;;;;;5155346;22;20063;-88
2022/12/25 12:35:24;;;;;;;3.70;3.50;;;;;;;;;;5093046;28;20528;-88
2022/12/25 12:37:52;;;;;;;2.50;2.40;;;;;;;;;;5093098;28;20087;-88
2022/12/25 12:40:24;;;;;;;3.63;3.40;;;;;;;;;;5087132;28;20379;-88
2022/12/25 12:42:51;;;;;;;4.18;3.97;;;;;;;;;;5093193;28;20048;-87
2022/12/25 12:45:19;;;;;;;2.00;1.90;;;;;;;;;;5092846;28;20134;-87
2022/12/25 12:47:47;;;;;;;2.47;2.38;;;;;;;;;;5092849;28;20047;-87
2022/12/25 12:50:28;;;;;;;3.00;2.90;;;;;;;;;;5092898;28;20052;-87
2022/12/25 12:52:55;;;;;;;3.13;3.03;;;;;;;;;;5092381;28;20121;-88
2022/12/25 12:55:28;;;;;;;6.13;5.93;;;;;;;;;;5092079;28;20200;-88
2022/12/25 12:57:57;;;;;;;3.95;3.75;;;;;;;;;;5087240;28;20048;-88
2022/12/25 13:00:24;;;;;;;3.72;3.60;;;;;;;;;;5091829;28;20052;-88
2022/12/25 13:03:02;;;;;;;3.38;3.22;;;;;;;;;;5092083;28;20044;-88
2022/12/25 13:05:36;;;;;;;4.03;3.83;;;;;;;;;;5091676;28;20101;-88
2022/12/25 13:08:08;;;;;;;2.67;2.58;;;;;;;;;;5091472;28;20543;-88
2022/12/25 13:10:36;;;;;;;2.95;2.75;;;;;;;;;;5091989;28;20052;-88
2022/12/25 13:13:05;;;;;;;3.13;2.90;;;;;;;;;;5087229;28;20048;-88
2022/12/25 13:15:32;;;;;;;2.17;2.08;;;;;;;;;;5071833;28;20056;-88
2022/12/25 13:18:01;;;;;;;2.53;2.42;;;;;;;;;;5071842;28;20144;-88
2022/12/25 13:20:33;;;;;;;2.03;1.92;;;;;;;;;;5052132;28;20052;-87
2022/12/25 13:23:01;;;;;;;2.60;2.50;;;;;;;;;;5051804;28;20053;-88
2022/12/25 13:25:27;;;;;;;3.05;2.95;;;;;;;;;;5051442;28;20053;-88
2022/12/25 13:27:55;;;;;;;2.65;2.55;;;;;;;;;;5051683;28;20060;-89
2022/12/25 13:30:22;;;;;;;2.30;2.20;;;;;;;;;;5081479;28;20052;-88
2022/12/25 13:32:49;;;;;;;10.32;2.97;;;;;;;;;;5086241;28;20248;-88
2022/12/25 13:35:16;;;;;;;2.50;2.40;;;;;;;;;;5091481;28;20101;-88
2022/12/25 13:37:43;;;;;;;4.82;3.85;;;;;;;;;;5075795;28;20048;-88
2022/12/25 13:40:18;;;;;;;2.28;2.17;;;;;;;;;;5071181;28;20049;-88
2022/12/25 13:42:45;;;;;;;3.40;3.30;;;;;;;;;;5074389;28;20058;-88
2022/12/25 13:45:19;;;;;;;2.40;2.30;;;;;;;;;;5075546;28;20056;-88
2022/12/25 13:47:48;;;;;;;2.78;2.67;;;;;;;;;;5075436;28;20070;-87
2022/12/25 13:50:16;;;;;;;2.22;2.13;;;;;;;;;;5075564;28;20135;-87
2022/12/25 13:52:42;;;;;;;2.92;2.83;;;;;;;;;;5075708;28;20053;-87
2022/12/25 13:55:12;;;;;;;2.67;2.58;;;;;;;;;;5075714;28;20048;-88
2022/12/25 13:57:41;;;;;;;2.45;1.95;;;;;;;;;;5075473;28;20044;-88
2022/12/25 14:00:16;;;;;;;2.90;2.78;;;;;;;;;;5075642;28;20049;-87
2022/12/25 14:02:43;;;;;;;3.25;3.15;;;;;;;;;;5075454;28;20048;-87
2022/12/25 14:05:22;;;;;;;4.70;3.72;;;;;;;;;;5075335;28;20098;-88
2022/12/25 14:07:50;;;;;;;3.75;3.55;;;;;;;;;;5074861;28;20057;-87
2022/12/25 14:10:17;;;;;;;2.03;1.92;;;;;;;;;;5074788;28;20049;-88
2022/12/25 14:12:48;;;;;;;2.67;2.58;;;;;;;;;;5075158;28;20056;-88
2022/12/25 14:15:16;;;;;;;2.38;2.28;;;;;;;;;;5074638;28;20060;-88
2022/12/25 14:17:42;;;;;;;2.28;2.17;;;;;;;;;;5074469;28;20113;-87
2022/12/25 14:20:21;;;;;;;1.25;1.23;;;;;;;;;;5074669;28;20044;-88
2022/12/25 14:22:50;;;;;;;3.05;2.92;;;;;;;;;;5074732;28;20097;-88
2022/12/25 14:25:16;;;;;;;3.92;3.67;;;;;;;;;;5074777;28;20045;-87
2022/12/25 14:27:49;;;;;;;3.38;3.17;;;;;;;;;;5074458;28;20048;-87
2022/12/25 14:30:15;;;;;;;2.47;2.38;;;;;;;;;;5074147;28;20054;-88
2022/12/25 14:32:44;;;;;;;2.22;2.13;;;;;;;;;;5073831;28;20056;-87
2022/12/25 14:35:11;;;;;;;2.05;1.95;;;;;;;;;;5074544;28;20056;-88
2022/12/25 14:37:40;;;;;;;3.65;3.40;;;;;;;;;;5074313;28;20048;-88
2022/12/25 14:40:20;;;;;;;1.92;1.83;;;;;;;;;;5074220;28;20398;-88
2022/12/25 14:42:56;;;;;;;2.65;2.55;;;;;;;;;;5060270;28;20045;-87
2022/12/25 14:45:27;;;;;;;2.78;2.60;;;;;;;;;;5055953;28;20155;-86
2022/12/25 14:47:54;;;;;;;2.72;2.53;;;;;;;;;;5054314;28;20053;-87
2022/12/25 14:50:28;;;;;;;4.00;3.85;;;;;;;;;;5059175;28;20082;-88
2022/12/25 14:52:54;;;;;;;2.30;2.20;;;;;;;;;;5091984;28;20062;-87
2022/12/25 14:55:22;;;;;;;2.53;2.40;;;;;;;;;;5093885;28;20048;-87
2022/12/25 14:57:51;;;;;;;3.00;2.80;;;;;;;;;;5088051;28;20047;-88
2022/12/25 15:00:23;;;;;;;2.95;2.28;;;;;;;;;;5078730;28;20093;-87
2022/12/25 15:02:50;;;;;;;12.55;1.45;;;;;;;;;;5094234;28;20494;-87
2022/12/25 15:05:24;;;;;;;2.78;2.58;;;;;;;;;;5093977;28;20052;-87
2022/12/25 15:07:58;;;;;;;5.28;4.97;;;;;;;;;;5083497;28;20055;-87
2022/12/25 15:10:25;;;;;;;3.22;3.03;;;;;;;;;;5093562;28;20050;-87
2022/12/25 15:12:51;;;;;;;3.78;3.58;;;;;;;;;;5093690;28;20509;-88
2022/12/25 15:15:18;;;;;;;3.08;2.55;;;;;;;;;;5080118;28;20106;-87
2022/12/25 15:17:46;;;;;;;5.28;3.60;;;;;;;;;;5073673;28;20075;-88
2022/12/25 15:20:13;;;;;;;4.80;3.00;;;;;;;;;;5073669;28;20452;-87
2022/12/25 15:22:39;;;;;;;5.63;5.13;;;;;;;;;;5073375;28;20102;-88
2022/12/25 15:25:06;;;;;;;4.68;2.28;;;;;;;;;;5074485;28;20114;-87
2022/12/25 15:27:33;;;;;;;3.70;3.17;;;;;;;;;;5073130;28;20111;-87
2022/12/25 15:30:00;;;;;;;1.52;1.42;;;;;;;;;;5075158;28;20165;-87
2022/12/25 15:32:26;;;;;;;3.45;3.22;;;;;;;;;;5071731;28;20106;-86
2022/12/25 15:34:54;;;;;;;1.45;1.38;;;;;;;;;;5072544;28;20060;-87
2022/12/25 15:37:21;;;;;;;3.03;2.90;;;;;;;;;;5081673;28;20097;-87
2022/12/25 15:39:47;;;;;;;2.50;2.40;;;;;;;;;;5073779;28;20049;-86
2022/12/25 15:42:14;;;;;;;3.88;3.67;;;;;;;;;;5073534;28;20569;-86
2022/12/25 15:44:41;;;;;;;2.75;2.65;;;;;;;;;;5072554;28;20098;-87
2022/12/25 15:47:08;;;;;;;7.25;4.65;;;;;;;;;;5067721;28;20052;-85
2022/12/25 15:49:35;;;;;;;5.22;4.72;;;;;;;;;;5072673;28;20041;-86
2022/12/25 15:52:03;;;;;;;8.40;7.68;;;;;;;;;;5072557;28;20044;-86
2022/12/25 15:54:30;;;;;;;9.90;5.85;;;;;;;;;;5072731;28;20048;-87
2022/12/25 15:56:58;;;;;;;3.97;3.67;;;;;;;;;;5072623;28;20486;-87
2022/12/25 15:59:24;;;;;;;2.75;2.65;;;;;;;;;;5076041;28;20048;-87
2022/12/25 16:01:51;;;;;;;3.45;3.25;;;;;;;;;;5073184;28;20098;-86
2022/12/25 16:04:18;;;;;;;4.40;4.03;;;;;;;;;;5070458;28;20048;-86
2022/12/25 16:06:45;;;;;;;2.92;2.80;;;;;;;;;;5051732;28;20491;-86
2022/12/25 16:09:14;;;;;;;1.92;1.80;;;;;;;;;;5067626;28;20401;-86
2022/12/25 16:11:40;;;;;;;3.85;3.08;;;;;;;;;;5052750;28;20052;-86
2022/12/25 16:14:06;;;;;;;2.65;2.45;;;;;;;;;;5082998;28;20630;-86
2022/12/25 16:16:33;;;;;;;3.17;2.95;;;;;;;;;;5092581;28;20105;-86
2022/12/25 16:18:59;;;;;;;2.92;2.72;;;;;;;;;;5078280;28;20048;-88
2022/12/25 16:21:27;;;;;;;3.30;3.17;;;;;;;;;;5070073;28;20500;-88
2022/12/25 16:23:53;;;;;;;4.53;3.65;;;;;;;;;;5054390;28;20049;-87
2022/12/25 16:26:21;;;;;;;4.28;3.40;;;;;;;;;;5052989;28;20115;-87
2022/12/25 16:28:47;;;;;;;3.60;3.30;;;;;;;;;;5055466;28;20052;-87
2022/12/25 16:31:14;;;;;;;3.33;3.15;;;;;;;;;;5052735;28;20414;-87